createdAt,value
2023-04-08T00:00:03.470Z,7.33
2023-04-08T00:16:04.258Z,6.83
2023-04-08T00:31:04.827Z,6.28
2023-04-08T00:46:00.518Z,5.83
2023-04-08T01:00:01.186Z,5.39
2023-04-08T01:16:01.910Z,5.06
2023-04-08T01:31:02.705Z,4.61
2023-04-08T01:46:03.182Z,4.44
2023-04-08T02:00:03.961Z,4.28
2023-04-08T02:16:04.804Z,4.06
2023-04-08T02:31:00.325Z,3.83
2023-04-08T02:46:01.029Z,3.56
2023-04-08T03:00:01.731Z,3.33
2023-04-08T03:16:02.242Z,3.11
2023-04-08T03:31:02.976Z,3.17
2023-04-08T03:46:03.728Z,3.17
2023-04-08T04:00:04.497Z,3.17
2023-04-08T04:16:00.427Z,3.22
2023-04-08T04:31:00.967Z,3.28
2023-04-08T04:46:01.637Z,3.28
2023-04-08T05:00:03.834Z,3.28
2023-04-08T05:16:02.970Z,3.28
2023-04-08T05:31:03.684Z,3.44
2023-04-08T05:46:04.195Z,3.72
2023-04-08T05:59:59.835Z,4
2023-04-08T06:16:00.634Z,4.56
2023-04-08T06:31:01.231Z,5.11
2023-04-08T06:46:01.909Z,5.56
2023-04-08T07:00:02.565Z,5.89
2023-04-08T07:16:03.534Z,6.33
2023-04-08T07:31:04.359Z,6.72
2023-04-08T07:45:59.865Z,7.17
2023-04-08T08:00:00.562Z,7.39
2023-04-08T08:16:01.442Z,7.56
2023-04-08T08:31:02.110Z,7.67
2023-04-08T08:46:02.613Z,7.72
2023-04-08T09:00:03.124Z,7.61
2023-04-08T09:16:04.144Z,7.72
2023-04-08T09:31:04.729Z,7.78
2023-04-08T09:46:00.521Z,7.94
2023-04-08T10:00:01.196Z,8.06
2023-04-08T10:16:02.004Z,8.17
2023-04-08T10:31:02.469Z,8.56
2023-04-08T10:46:03.117Z,8.5
2023-04-08T11:00:03.540Z,8.56
2023-04-08T11:16:16.493Z,8.61
2023-04-08T11:31:00.245Z,8.61
2023-04-08T11:46:00.853Z,8.5
2023-04-08T12:00:01.540Z,8.56
2023-04-08T12:16:02.388Z,8.83
2023-04-08T12:31:02.973Z,8.78
2023-04-08T12:46:03.509Z,8.78
2023-04-08T13:00:04.061Z,8.83
2023-04-08T13:16:00.353Z,8.61
2023-04-08T13:31:00.591Z,8.5
2023-04-08T13:46:01.361Z,8.28
2023-04-08T14:00:01.855Z,8.5
2023-04-08T14:16:02.622Z,8.67
2023-04-08T14:31:03.411Z,9.06
2023-04-08T14:46:04.097Z,9.11
2023-04-08T14:59:59.864Z,8.78
2023-04-08T15:16:00.552Z,8.33
2023-04-08T15:31:01.153Z,7.94
2023-04-08T15:46:01.941Z,7.44
2023-04-08T16:00:02.541Z,7
2023-04-08T16:16:03.670Z,6.83
2023-04-08T16:31:04.356Z,6.78
2023-04-08T16:46:00.148Z,6.67
2023-04-08T17:00:00.735Z,6.56
2023-04-08T17:16:03.493Z,6.56
2023-04-08T17:31:02.649Z,6.33
2023-04-08T17:46:03.355Z,6.28
2023-04-08T18:00:03.882Z,6.17
2023-04-08T18:15:59.783Z,5.89
2023-04-08T18:31:00.561Z,5.67
2023-04-08T18:46:01.011Z,5.61
2023-04-08T19:00:01.764Z,5.56
2023-04-08T19:16:02.367Z,5.44
2023-04-08T19:31:03.083Z,5.39
2023-04-08T19:46:03.821Z,5.33
2023-04-08T20:00:04.773Z,5.33
2023-04-08T20:16:00.419Z,5.33
2023-04-08T20:31:01.199Z,5.39
2023-04-08T20:46:01.889Z,5.44
2023-04-08T21:00:02.782Z,5.5
2023-04-08T21:16:03.610Z,5.5
2023-04-08T21:31:04.391Z,5.5
2023-04-08T21:46:00.250Z,5.5
2023-04-08T22:00:00.716Z,5.39
2023-04-08T22:16:01.461Z,5.33
2023-04-08T22:31:02.476Z,5.33
2023-04-08T22:46:03.020Z,5.22
2023-04-08T23:00:04.428Z,5.06
2023-04-08T23:16:04.567Z,4.94
2023-04-08T23:31:00.421Z,4.89
2023-04-08T23:46:01.010Z,4.83
